sensor_id;sensor_type;location;lat;lon;timestamp;pressure;altitude;pressure_sealevel;temperature;humidity
73106;BME280;61559;50.476;15.588;2023-04-02T00:01:25;96595.04;;;7.34;89.26
73106;BME280;61559;50.476;15.588;2023-04-02T00:04:14;96597.22;;;7.31;89.33
73106;BME280;61559;50.476;15.588;2023-04-02T00:06:54;96600.58;;;7.29;89.48
73106;BME280;61559;50.476;15.588;2023-04-02T00:09:34;96600.09;;;7.28;89.50
73106;BME280;61559;50.476;15.588;2023-04-02T00:12:21;96599.30;;;7.29;89.79
73106;BME280;61559;50.476;15.588;2023-04-02T00:14:54;96598.49;;;7.30;89.76
73106;BME280;61559;50.476;15.588;2023-04-02T00:17:27;96605.63;;;7.29;89.74
73106;BME280;61559;50.476;15.588;2023-04-02T00:20:01;96604.44;;;7.25;89.68
73106;BME280;61559;50.476;15.588;2023-04-02T00:22:35;96605.61;;;7.17;89.77
73106;BME280;61559;50.476;15.588;2023-04-02T00:25:14;96612.11;;;7.15;90.02
73106;BME280;61559;50.476;15.588;2023-04-02T00:27:46;96609.05;;;7.15;90.19
73106;BME280;61559;50.476;15.588;2023-04-02T00:30:17;96610.37;;;7.17;90.21
73106;BME280;61559;50.476;15.588;2023-04-02T00:32:48;96614.94;;;7.20;90.30
73106;BME280;61559;50.476;15.588;2023-04-02T00:35:24;96616.38;;;7.23;90.22
73106;BME280;61559;50.476;15.588;2023-04-02T00:37:57;96619.63;;;7.26;90.21
73106;BME280;61559;50.476;15.588;2023-04-02T00:40:29;96620.15;;;7.30;90.18
73106;BME280;61559;50.476;15.588;2023-04-02T00:43:01;96622.47;;;7.33;90.09
73106;BME280;61559;50.476;15.588;2023-04-02T00:45:37;96623.58;;;7.37;90.03
73106;BME280;61559;50.476;15.588;2023-04-02T00:48:25;96623.81;;;7.39;90.05
73106;BME280;61559;50.476;15.588;2023-04-02T00:51:00;96623.67;;;7.42;89.95
73106;BME280;61559;50.476;15.588;2023-04-02T00:53:39;96628.85;;;7.45;89.77
73106;BME280;61559;50.476;15.588;2023-04-02T00:56:16;96627.58;;;7.46;89.80
73106;BME280;61559;50.476;15.588;2023-04-02T00:58:54;96627.01;;;7.48;89.69
73106;BME280;61559;50.476;15.588;2023-04-02T01:01:28;96628.63;;;7.48;89.61
73106;BME280;61559;50.476;15.588;2023-04-02T01:04:04;96633.23;;;7.50;89.65
73106;BME280;61559;50.476;15.588;2023-04-02T01:06:36;96634.52;;;7.51;89.57
73106;BME280;61559;50.476;15.588;2023-04-02T01:09:17;96636.85;;;7.52;89.53
73106;BME280;61559;50.476;15.588;2023-04-02T01:12:14;96638.73;;;7.54;89.54
73106;BME280;61559;50.476;15.588;2023-04-02T01:14:57;96638.14;;;7.55;89.47
73106;BME280;61559;50.476;15.588;2023-04-02T01:17:41;96633.52;;;7.55;89.30
73106;BME280;61559;50.476;15.588;2023-04-02T01:20:49;96637.20;;;7.56;89.36
73106;BME280;61559;50.476;15.588;2023-04-02T01:23:29;96639.56;;;7.54;89.36
73106;BME280;61559;50.476;15.588;2023-04-02T01:26:12;96644.41;;;7.51;89.24
73106;BME280;61559;50.476;15.588;2023-04-02T01:28:54;96643.55;;;7.48;89.28
73106;BME280;61559;50.476;15.588;2023-04-02T01:31:30;96647.77;;;7.45;89.43
73106;BME280;61559;50.476;15.588;2023-04-02T01:34:05;96649.27;;;7.44;89.44
73106;BME280;61559;50.476;15.588;2023-04-02T01:36:40;96653.60;;;7.43;89.52
73106;BME280;61559;50.476;15.588;2023-04-02T01:39:21;96652.19;;;7.42;89.52
73106;BME280;61559;50.476;15.588;2023-04-02T01:42:03;96658.61;;;7.42;89.66
73106;BME280;61559;50.476;15.588;2023-04-02T01:44:40;96660.16;;;7.44;89.57
73106;BME280;61559;50.476;15.588;2023-04-02T01:47:14;96665.29;;;7.46;89.63
73106;BME280;61559;50.476;15.588;2023-04-02T01:49:47;96667.02;;;7.47;89.67
73106;BME280;61559;50.476;15.588;2023-04-02T01:52:33;96668.11;;;7.49;89.60
73106;BME280;61559;50.476;15.588;2023-04-02T01:55:07;96669.20;;;7.50;89.58
73106;BME280;61559;50.476;15.588;2023-04-02T01:57:38;96667.17;;;7.51;89.56
73106;BME280;61559;50.476;15.588;2023-04-02T02:00:14;96669.67;;;7.51;89.49
73106;BME280;61559;50.476;15.588;2023-04-02T02:02:48;96670.09;;;7.51;89.35
73106;BME280;61559;50.476;15.588;2023-04-02T02:05:21;96671.84;;;7.51;89.47
73106;BME280;61559;50.476;15.588;2023-04-02T02:07:55;96674.68;;;7.50;89.54
73106;BME280;61559;50.476;15.588;2023-04-02T02:10:31;96677.52;;;7.50;89.43
73106;BME280;61559;50.476;15.588;2023-04-02T02:13:04;96678.60;;;7.49;89.52
73106;BME280;61559;50.476;15.588;2023-04-02T02:15:36;96677.48;;;7.47;89.47
73106;BME280;61559;50.476;15.588;2023-04-02T02:18:08;96678.44;;;7.42;89.38
73106;BME280;61559;50.476;15.588;2023-04-02T02:20:41;96679.80;;;7.34;89.44
73106;BME280;61559;50.476;15.588;2023-04-02T02:23:14;96681.63;;;7.27;89.40
73106;BME280;61559;50.476;15.588;2023-04-02T02:25:47;96685.32;;;7.20;89.34
73106;BME280;61559;50.476;15.588;2023-04-02T02:28:22;96686.79;;;7.15;89.22
73106;BME280;61559;50.476;15.588;2023-04-02T02:30:55;96691.89;;;7.11;89.13
73106;BME280;61559;50.476;15.588;2023-04-02T02:33:29;96693.88;;;7.06;89.03
73106;BME280;61559;50.476;15.588;2023-04-02T02:36:06;96696.11;;;7.00;88.96
73106;BME280;61559;50.476;15.588;2023-04-02T02:38:49;96699.20;;;6.93;88.99
73106;BME280;61559;50.476;15.588;2023-04-02T02:41:27;96705.02;;;6.87;88.90
73106;BME280;61559;50.476;15.588;2023-04-02T02:44:05;96708.64;;;6.81;88.79
73106;BME280;61559;50.476;15.588;2023-04-02T02:46:44;96710.08;;;6.75;88.80
73106;BME280;61559;50.476;15.588;2023-04-02T02:49:21;96711.70;;;6.69;88.89
73106;BME280;61559;50.476;15.588;2023-04-02T02:51:59;96718.62;;;6.63;88.86
73106;BME280;61559;50.476;15.588;2023-04-02T02:54:32;96720.74;;;6.57;88.71
73106;BME280;61559;50.476;15.588;2023-04-02T02:57:08;96726.50;;;6.50;88.44
73106;BME280;61559;50.476;15.588;2023-04-02T02:59:42;96731.70;;;6.45;88.51
73106;BME280;61559;50.476;15.588;2023-04-02T03:02:14;96736.20;;;6.39;88.65
73106;BME280;61559;50.476;15.588;2023-04-02T03:04:48;96735.42;;;6.34;88.62
73106;BME280;61559;50.476;15.588;2023-04-02T03:07:23;96738.13;;;6.29;88.46
73106;BME280;61559;50.476;15.588;2023-04-02T03:10:01;96738.73;;;6.24;88.66
73106;BME280;61559;50.476;15.588;2023-04-02T03:12:42;96738.83;;;6.17;88.64
73106;BME280;61559;50.476;15.588;2023-04-02T03:15:26;96748.45;;;6.09;88.69
73106;BME280;61559;50.476;15.588;2023-04-02T03:18:04;96746.48;;;6.02;88.75
73106;BME280;61559;50.476;15.588;2023-04-02T03:20:42;96753.98;;;5.96;88.71
73106;BME280;61559;50.476;15.588;2023-04-02T03:23:20;96753.61;;;5.89;88.72
73106;BME280;61559;50.476;15.588;2023-04-02T03:25:57;96759.40;;;5.84;88.77
73106;BME280;61559;50.476;15.588;2023-04-02T03:28:31;96761.45;;;5.79;88.69
73106;BME280;61559;50.476;15.588;2023-04-02T03:31:07;96761.78;;;5.74;88.80
73106;BME280;61559;50.476;15.588;2023-04-02T03:33:41;96767.45;;;5.70;88.80
73106;BME280;61559;50.476;15.588;2023-04-02T03:36:18;96771.69;;;5.66;88.75
73106;BME280;61559;50.476;15.588;2023-04-02T03:38:52;96771.59;;;5.61;88.82
73106;BME280;61559;50.476;15.588;2023-04-02T03:41:30;96772.13;;;5.56;88.79
73106;BME280;61559;50.476;15.588;2023-04-02T03:44:03;96777.95;;;5.49;88.92
73106;BME280;61559;50.476;15.588;2023-04-02T03:46:39;96786.61;;;5.43;89.04
73106;BME280;61559;50.476;15.588;2023-04-02T03:49:16;96790.74;;;5.37;88.78
73106;BME280;61559;50.476;15.588;2023-04-02T03:51:54;96797.46;;;5.33;88.82
73106;BME280;61559;50.476;15.588;2023-04-02T03:54:28;96799.75;;;5.28;88.91
73106;BME280;61559;50.476;15.588;2023-04-02T03:57:00;96805.88;;;5.25;88.93
73106;BME280;61559;50.476;15.588;2023-04-02T03:59:37;96806.77;;;5.22;88.83
73106;BME280;61559;50.476;15.588;2023-04-02T04:02:23;96810.08;;;5.17;88.71
73106;BME280;61559;50.476;15.588;2023-04-02T04:04:58;96813.27;;;5.11;88.46
73106;BME280;61559;50.476;15.588;2023-04-02T04:07:33;96819.58;;;5.05;88.35
73106;BME280;61559;50.476;15.588;2023-04-02T04:10:08;96823.97;;;4.99;88.50
73106;BME280;61559;50.476;15.588;2023-04-02T04:12:48;96826.99;;;4.96;88.57
73106;BME280;61559;50.476;15.588;2023-04-02T04:15:24;96832.93;;;4.92;88.32
73106;BME280;61559;50.476;15.588;2023-04-02T04:18:00;96837.81;;;4.88;88.13
73106;BME280;61559;50.476;15.588;2023-04-02T04:20:38;96846.23;;;4.82;88.00
73106;BME280;61559;50.476;15.588;2023-04-02T04:23:19;96852.18;;;4.76;88.01
73106;BME280;61559;50.476;15.588;2023-04-02T04:26:00;96853.89;;;4.71;87.86
73106;BME280;61559;50.476;15.588;2023-04-02T04:28:42;96861.86;;;4.68;87.82
73106;BME280;61559;50.476;15.588;2023-04-02T04:31:21;96863.52;;;4.65;87.66
73106;BME280;61559;50.476;15.588;2023-04-02T04:34:06;96866.53;;;4.61;87.57
73106;BME280;61559;50.476;15.588;2023-04-02T04:36:43;96868.34;;;4.56;87.33
73106;BME280;61559;50.476;15.588;2023-04-02T04:39:18;96872.45;;;4.51;87.46
73106;BME280;61559;50.476;15.588;2023-04-02T04:41:52;96878.83;;;4.48;87.50
73106;BME280;61559;50.476;15.588;2023-04-02T04:44:31;96879.75;;;4.45;87.54
73106;BME280;61559;50.476;15.588;2023-04-02T04:47:10;96885.11;;;4.42;87.60
73106;BME280;61559;50.476;15.588;2023-04-02T04:49:48;96887.92;;;4.39;87.51
73106;BME280;61559;50.476;15.588;2023-04-02T04:52:24;96891.38;;;4.36;87.64
73106;BME280;61559;50.476;15.588;2023-04-02T04:54:56;96896.08;;;4.33;87.58
73106;BME280;61559;50.476;15.588;2023-04-02T04:57:31;96897.92;;;4.31;87.42
73106;BME280;61559;50.476;15.588;2023-04-02T05:00:09;96900.16;;;4.31;87.60
73106;BME280;61559;50.476;15.588;2023-04-02T05:02:47;96903.60;;;4.30;87.49
73106;BME280;61559;50.476;15.588;2023-04-02T05:05:23;96906.95;;;4.27;87.34
73106;BME280;61559;50.476;15.588;2023-04-02T05:07:59;96915.23;;;4.25;87.09
73106;BME280;61559;50.476;15.588;2023-04-02T05:10:39;96921.10;;;4.25;86.98
73106;BME280;61559;50.476;15.588;2023-04-02T05:13:13;96923.10;;;4.24;86.57
73106;BME280;61559;50.476;15.588;2023-04-02T05:15:51;96927.06;;;4.22;86.52
73106;BME280;61559;50.476;15.588;2023-04-02T05:18:29;96931.25;;;4.21;86.65
73106;BME280;61559;50.476;15.588;2023-04-02T05:21:02;96936.93;;;4.20;86.32
73106;BME280;61559;50.476;15.588;2023-04-02T05:23:42;96942.42;;;4.18;86.36
73106;BME280;61559;50.476;15.588;2023-04-02T05:26:17;96946.81;;;4.17;86.43
73106;BME280;61559;50.476;15.588;2023-04-02T05:28:53;96953.20;;;4.16;86.18
73106;BME280;61559;50.476;15.588;2023-04-02T05:31:34;96959.27;;;4.15;86.26
73106;BME280;61559;50.476;15.588;2023-04-02T05:34:08;96959.09;;;4.14;85.82
73106;BME280;61559;50.476;15.588;2023-04-02T05:36:40;96960.58;;;4.13;85.85
73106;BME280;61559;50.476;15.588;2023-04-02T05:39:21;96963.65;;;4.12;85.49
73106;BME280;61559;50.476;15.588;2023-04-02T05:42:00;96968.05;;;4.12;85.47
73106;BME280;61559;50.476;15.588;2023-04-02T05:44:34;96972.21;;;4.09;85.12
73106;BME280;61559;50.476;15.588;2023-04-02T05:47:12;96976.28;;;4.09;85.48
73106;BME280;61559;50.476;15.588;2023-04-02T05:49:46;96980.38;;;4.11;85.37
73106;BME280;61559;50.476;15.588;2023-04-02T05:52:23;96984.02;;;4.10;84.96
73106;BME280;61559;50.476;15.588;2023-04-02T05:55:01;96982.56;;;4.08;84.29
73106;BME280;61559;50.476;15.588;2023-04-02T05:57:36;96988.59;;;4.11;84.44
73106;BME280;61559;50.476;15.588;2023-04-02T06:00:22;96994.73;;;4.12;84.36
73106;BME280;61559;50.476;15.588;2023-04-02T06:02:56;96999.55;;;4.14;84.17
73106;BME280;61559;50.476;15.588;2023-04-02T06:05:34;97001.98;;;4.17;84.19
73106;BME280;61559;50.476;15.588;2023-04-02T06:08:12;97003.19;;;4.20;83.93
73106;BME280;61559;50.476;15.588;2023-04-02T06:10:49;97010.13;;;4.23;83.82
73106;BME280;61559;50.476;15.588;2023-04-02T06:13:23;97012.50;;;4.25;83.48
73106;BME280;61559;50.476;15.588;2023-04-02T06:15:55;97016.21;;;4.26;83.13
73106;BME280;61559;50.476;15.588;2023-04-02T06:18:28;97023.42;;;4.25;82.76
73106;BME280;61559;50.476;15.588;2023-04-02T06:21:01;97031.39;;;4.23;82.63
73106;BME280;61559;50.476;15.588;2023-04-02T06:23:37;97036.26;;;4.21;82.55
73106;BME280;61559;50.476;15.588;2023-04-02T06:26:14;97035.42;;;4.18;82.46
73106;BME280;61559;50.476;15.588;2023-04-02T06:29:09;97037.96;;;4.16;82.59
73106;BME280;61559;50.476;15.588;2023-04-02T06:31:46;97048.10;;;4.16;82.78
73106;BME280;61559;50.476;15.588;2023-04-02T06:34:21;97048.52;;;4.15;82.43
73106;BME280;61559;50.476;15.588;2023-04-02T06:36:56;97063.23;;;4.16;82.10
73106;BME280;61559;50.476;15.588;2023-04-02T06:39:28;97066.23;;;4.13;81.77
73106;BME280;61559;50.476;15.588;2023-04-02T06:42:02;97065.20;;;4.10;81.45
73106;BME280;61559;50.476;15.588;2023-04-02T06:44:35;97069.98;;;4.12;82.16
73106;BME280;61559;50.476;15.588;2023-04-02T06:47:12;97077.33;;;4.14;81.77
73106;BME280;61559;50.476;15.588;2023-04-02T06:49:49;97079.59;;;4.13;80.12
73106;BME280;61559;50.476;15.588;2023-04-02T06:52:24;97083.38;;;4.12;80.80
73106;BME280;61559;50.476;15.588;2023-04-02T06:54:58;97084.55;;;4.08;79.91
73106;BME280;61559;50.476;15.588;2023-04-02T06:57:32;97090.54;;;4.05;79.74
73106;BME280;61559;50.476;15.588;2023-04-02T07:00:08;97085.91;;;4.04;79.91
73106;BME280;61559;50.476;15.588;2023-04-02T07:02:49;97096.34;;;4.07;79.42
73106;BME280;61559;50.476;15.588;2023-04-02T07:05:20;97104.93;;;4.08;80.01
73106;BME280;61559;50.476;15.588;2023-04-02T07:07:52;97110.46;;;4.06;79.74
73106;BME280;61559;50.476;15.588;2023-04-02T07:10:21;97112.32;;;4.08;79.87
73106;BME280;61559;50.476;15.588;2023-04-02T07:12:52;97116.55;;;4.11;80.49
73106;BME280;61559;50.476;15.588;2023-04-02T07:15:24;97124.73;;;4.18;80.06
73106;BME280;61559;50.476;15.588;2023-04-02T07:17:56;97126.46;;;4.23;78.88
73106;BME280;61559;50.476;15.588;2023-04-02T07:20:30;97127.48;;;4.31;79.74
73106;BME280;61559;50.476;15.588;2023-04-02T07:23:02;97129.20;;;4.37;79.57
73106;BME280;61559;50.476;15.588;2023-04-02T07:25:33;97138.48;;;4.46;79.59
73106;BME280;61559;50.476;15.588;2023-04-02T07:28:05;97140.72;;;4.54;79.65
73106;BME280;61559;50.476;15.588;2023-04-02T07:30:37;97145.57;;;4.62;78.62
73106;BME280;61559;50.476;15.588;2023-04-02T07:33:11;97149.86;;;4.69;79.01
73106;BME280;61559;50.476;15.588;2023-04-02T07:35:42;97147.90;;;4.75;77.56
73106;BME280;61559;50.476;15.588;2023-04-02T07:38:14;97152.98;;;4.79;77.37
73106;BME280;61559;50.476;15.588;2023-04-02T07:40:45;97159.25;;;4.84;77.68
73106;BME280;61559;50.476;15.588;2023-04-02T07:43:16;97160.31;;;4.88;77.16
73106;BME280;61559;50.476;15.588;2023-04-02T07:45:48;97164.09;;;4.95;78.17
73106;BME280;61559;50.476;15.588;2023-04-02T07:48:19;97166.45;;;5.04;77.36
73106;BME280;61559;50.476;15.588;2023-04-02T07:50:49;97170.59;;;5.07;76.12
73106;BME280;61559;50.476;15.588;2023-04-02T07:53:29;97169.63;;;5.07;75.42
73106;BME280;61559;50.476;15.588;2023-04-02T07:56:03;97173.70;;;5.12;76.59
73106;BME280;61559;50.476;15.588;2023-04-02T07:58:34;97182.98;;;5.19;76.00
73106;BME280;61559;50.476;15.588;2023-04-02T08:01:10;97186.23;;;5.22;75.36
73106;BME280;61559;50.476;15.588;2023-04-02T08:03:44;97185.24;;;5.23;75.20
73106;BME280;61559;50.476;15.588;2023-04-02T08:06:16;97193.67;;;5.29;75.70
73106;BME280;61559;50.476;15.588;2023-04-02T08:08:47;97198.98;;;5.36;76.23
73106;BME280;61559;50.476;15.588;2023-04-02T08:11:19;97200.13;;;5.45;76.18
73106;BME280;61559;50.476;15.588;2023-04-02T08:13:50;97206.62;;;5.54;75.97
73106;BME280;61559;50.476;15.588;2023-04-02T08:16:21;97215.52;;;5.60;74.12
73106;BME280;61559;50.476;15.588;2023-04-02T08:18:54;97224.36;;;5.69;75.39
73106;BME280;61559;50.476;15.588;2023-04-02T08:21:26;97225.20;;;5.82;74.18
73106;BME280;61559;50.476;15.588;2023-04-02T08:23:58;97231.21;;;5.98;73.13
73106;BME280;61559;50.476;15.588;2023-04-02T08:26:29;97236.27;;;6.09;71.73
73106;BME280;61559;50.476;15.588;2023-04-02T08:29:00;97245.77;;;6.15;72.23
73106;BME280;61559;50.476;15.588;2023-04-02T08:31:32;97249.50;;;6.21;71.97
73106;BME280;61559;50.476;15.588;2023-04-02T08:34:03;97251.32;;;6.22;70.99
73106;BME280;61559;50.476;15.588;2023-04-02T08:36:33;97252.78;;;6.26;71.98
73106;BME280;61559;50.476;15.588;2023-04-02T08:39:06;97257.92;;;6.33;72.85
73106;BME280;61559;50.476;15.588;2023-04-02T08:41:46;97260.65;;;6.43;73.17
73106;BME280;61559;50.476;15.588;2023-04-02T08:44:26;97261.63;;;6.53;72.88
73106;BME280;61559;50.476;15.588;2023-04-02T08:47:07;97266.40;;;6.64;73.03
73106;BME280;61559;50.476;15.588;2023-04-02T08:49:43;97267.73;;;6.77;73.45
73106;BME280;61559;50.476;15.588;2023-04-02T08:52:23;97275.59;;;6.86;72.80
73106;BME280;61559;50.476;15.588;2023-04-02T08:54:56;97275.59;;;6.85;72.39
73106;BME280;61559;50.476;15.588;2023-04-02T08:57:35;97283.50;;;6.84;71.91
73106;BME280;61559;50.476;15.588;2023-04-02T09:00:24;97290.74;;;6.86;71.63
73106;BME280;61559;50.476;15.588;2023-04-02T09:02:59;97298.30;;;6.89;70.51
73106;BME280;61559;50.476;15.588;2023-04-02T09:05:33;97302.60;;;6.94;69.35
73106;BME280;61559;50.476;15.588;2023-04-02T09:08:16;97307.69;;;6.97;67.84
73106;BME280;61559;50.476;15.588;2023-04-02T09:10:53;97305.45;;;7.06;70.14
73106;BME280;61559;50.476;15.588;2023-04-02T09:13:27;97309.10;;;7.13;69.15
73106;BME280;61559;50.476;15.588;2023-04-02T09:16:04;97314.13;;;7.15;68.89
73106;BME280;61559;50.476;15.588;2023-04-02T09:18:38;97319.97;;;7.18;69.91
73106;BME280;61559;50.476;15.588;2023-04-02T09:21:30;97325.48;;;7.21;68.75
73106;BME280;61559;50.476;15.588;2023-04-02T09:24:04;97324.95;;;7.17;67.61
73106;BME280;61559;50.476;15.588;2023-04-02T09:26:35;97331.41;;;7.17;67.58
73106;BME280;61559;50.476;15.588;2023-04-02T09:29:34;97335.61;;;7.19;68.10
73106;BME280;61559;50.476;15.588;2023-04-02T09:35:17;97347.30;;;7.32;68.33
73106;BME280;61559;50.476;15.588;2023-04-02T09:38:22;97359.79;;;7.32;67.74
73106;BME280;61559;50.476;15.588;2023-04-02T09:40:59;97365.22;;;7.30;67.23
73106;BME280;61559;50.476;15.588;2023-04-02T09:43:32;97370.59;;;7.28;67.73
73106;BME280;61559;50.476;15.588;2023-04-02T09:46:05;97377.68;;;7.29;67.98
73106;BME280;61559;50.476;15.588;2023-04-02T09:48:48;97380.22;;;7.27;66.87
73106;BME280;61559;50.476;15.588;2023-04-02T09:51:24;97385.73;;;7.26;66.94
73106;BME280;61559;50.476;15.588;2023-04-02T09:54:07;97391.98;;;7.28;67.54
73106;BME280;61559;50.476;15.588;2023-04-02T09:56:59;97393.85;;;7.30;67.35
73106;BME280;61559;50.476;15.588;2023-04-02T09:59:31;97395.61;;;7.32;67.72
73106;BME280;61559;50.476;15.588;2023-04-02T10:02:02;97393.42;;;7.36;68.04
73106;BME280;61559;50.476;15.588;2023-04-02T10:04:38;97404.30;;;7.40;67.54
73106;BME280;61559;50.476;15.588;2023-04-02T10:07:31;97400.58;;;7.40;67.54
73106;BME280;61559;50.476;15.588;2023-04-02T10:10:17;97405.08;;;7.48;67.68
73106;BME280;61559;50.476;15.588;2023-04-02T10:12:56;97403.11;;;7.53;66.52
73106;BME280;61559;50.476;15.588;2023-04-02T10:15:36;97406.09;;;7.63;67.63
73106;BME280;61559;50.476;15.588;2023-04-02T10:18:13;97406.42;;;7.67;66.34
73106;BME280;61559;50.476;15.588;2023-04-02T10:20:48;97410.14;;;7.70;66.01
73106;BME280;61559;50.476;15.588;2023-04-02T10:23:26;97417.33;;;7.75;65.34
73106;BME280;61559;50.476;15.588;2023-04-02T10:26:06;97416.27;;;7.73;65.53
73106;BME280;61559;50.476;15.588;2023-04-02T10:31:46;97432.96;;;7.77;65.63
73106;BME280;61559;50.476;15.588;2023-04-02T10:34:22;97432.23;;;7.83;66.01
73106;BME280;61559;50.476;15.588;2023-04-02T10:36:56;97429.56;;;7.93;66.47
73106;BME280;61559;50.476;15.588;2023-04-02T10:39:31;97436.41;;;8.06;65.80
73106;BME280;61559;50.476;15.588;2023-04-02T10:42:18;97441.35;;;8.03;64.29
73106;BME280;61559;50.476;15.588;2023-04-02T10:44:55;97449.90;;;7.89;64.49
73106;BME280;61559;50.476;15.588;2023-04-02T10:47:38;97448.73;;;7.78;63.90
73106;BME280;61559;50.476;15.588;2023-04-02T10:50:26;97451.14;;;7.69;64.20
73106;BME280;61559;50.476;15.588;2023-04-02T10:53:07;97453.92;;;7.65;64.65
73106;BME280;61559;50.476;15.588;2023-04-02T10:55:44;97458.56;;;7.61;64.60
73106;BME280;61559;50.476;15.588;2023-04-02T10:58:24;97459.98;;;7.57;64.76
73106;BME280;61559;50.476;15.588;2023-04-02T11:01:13;97460.61;;;7.57;65.92
73106;BME280;61559;50.476;15.588;2023-04-02T11:03:48;97466.03;;;7.60;65.21
73106;BME280;61559;50.476;15.588;2023-04-02T11:06:31;97475.66;;;7.55;64.49
73106;BME280;61559;50.476;15.588;2023-04-02T11:09:13;97479.33;;;7.40;63.96
73106;BME280;61559;50.476;15.588;2023-04-02T11:11:47;97486.84;;;7.33;65.06
73106;BME280;61559;50.476;15.588;2023-04-02T11:14:23;97492.42;;;7.33;66.24
73106;BME280;61559;50.476;15.588;2023-04-02T11:16:56;97503.63;;;7.34;65.57
73106;BME280;61559;50.476;15.588;2023-04-02T11:19:30;97504.63;;;7.32;66.03
73106;BME280;61559;50.476;15.588;2023-04-02T11:22:02;97511.84;;;7.30;65.32
73106;BME280;61559;50.476;15.588;2023-04-02T11:24:43;97512.61;;;7.27;66.41
73106;BME280;61559;50.476;15.588;2023-04-02T11:27:26;97517.54;;;7.20;64.00
73106;BME280;61559;50.476;15.588;2023-04-02T11:30:05;97520.60;;;7.09;65.27
73106;BME280;61559;50.476;15.588;2023-04-02T11:32:42;97524.45;;;7.09;65.31
73106;BME280;61559;50.476;15.588;2023-04-02T11:35:36;97523.39;;;6.99;65.12
73106;BME280;61559;50.476;15.588;2023-04-02T11:41:14;97534.75;;;7.02;66.37
73106;BME280;61559;50.476;15.588;2023-04-02T11:44:17;97537.11;;;7.14;65.82
73106;BME280;61559;50.476;15.588;2023-04-02T11:46:51;97539.27;;;7.20;64.40
73106;BME280;61559;50.476;15.588;2023-04-02T11:49:57;97540.60;;;7.23;64.70
73106;BME280;61559;50.476;15.588;2023-04-02T11:52:33;97541.45;;;7.27;63.87
73106;BME280;61559;50.476;15.588;2023-04-02T11:55:26;97550.05;;;7.31;64.89
73106;BME280;61559;50.476;15.588;2023-04-02T11:58:03;97554.11;;;7.36;63.80
73106;BME280;61559;50.476;15.588;2023-04-02T12:03:54;97570.93;;;7.44;62.48
73106;BME280;61559;50.476;15.588;2023-04-02T12:06:36;97574.89;;;7.43;63.04
73106;BME280;61559;50.476;15.588;2023-04-02T12:09:19;97584.94;;;7.49;63.17
73106;BME280;61559;50.476;15.588;2023-04-02T12:11:56;97589.30;;;7.51;62.11
73106;BME280;61559;50.476;15.588;2023-04-02T12:14:42;97594.69;;;7.42;61.64
73106;BME280;61559;50.476;15.588;2023-04-02T12:17:23;97596.27;;;7.37;62.13
73106;BME280;61559;50.476;15.588;2023-04-02T12:19:57;97598.15;;;7.35;62.22
73106;BME280;61559;50.476;15.588;2023-04-02T12:22:33;97594.26;;;7.32;62.97
73106;BME280;61559;50.476;15.588;2023-04-02T12:25:17;97598.34;;;7.35;63.32
73106;BME280;61559;50.476;15.588;2023-04-02T12:28:05;97601.68;;;7.38;63.47
73106;BME280;61559;50.476;15.588;2023-04-02T12:30:41;97603.55;;;7.48;63.89
73106;BME280;61559;50.476;15.588;2023-04-02T12:33:28;97607.31;;;7.59;64.34
73106;BME280;61559;50.476;15.588;2023-04-02T12:36:06;97609.20;;;7.60;61.69
73106;BME280;61559;50.476;15.588;2023-04-02T12:38:50;97610.77;;;7.48;61.86
73106;BME280;61559;50.476;15.588;2023-04-02T12:41:27;97613.26;;;7.44;62.42
73106;BME280;61559;50.476;15.588;2023-04-02T12:44:01;97615.91;;;7.33;61.59
73106;BME280;61559;50.476;15.588;2023-04-02T12:46:34;97622.09;;;7.24;62.33
73106;BME280;61559;50.476;15.588;2023-04-02T12:49:07;97625.70;;;7.19;62.77
73106;BME280;61559;50.476;15.588;2023-04-02T12:51:42;97632.80;;;7.18;61.56
73106;BME280;61559;50.476;15.588;2023-04-02T12:54:15;97633.46;;;7.08;60.46
73106;BME280;61559;50.476;15.588;2023-04-02T12:56:49;97634.17;;;6.95;60.12
73106;BME280;61559;50.476;15.588;2023-04-02T12:59:32;97634.14;;;6.85;60.90
73106;BME280;61559;50.476;15.588;2023-04-02T13:02:18;97634.95;;;6.82;61.23
73106;BME280;61559;50.476;15.588;2023-04-02T13:04:51;97640.93;;;6.82;61.78
73106;BME280;61559;50.476;15.588;2023-04-02T13:07:24;97642.67;;;6.82;61.63
73106;BME280;61559;50.476;15.588;2023-04-02T13:09:58;97650.97;;;6.82;61.83
73106;BME280;61559;50.476;15.588;2023-04-02T13:12:32;97655.75;;;6.84;60.86
73106;BME280;61559;50.476;15.588;2023-04-02T13:15:07;97650.53;;;6.87;60.50
73106;BME280;61559;50.476;15.588;2023-04-02T13:17:43;97652.66;;;6.89;60.23
73106;BME280;61559;50.476;15.588;2023-04-02T13:20:33;97659.17;;;6.97;61.23
73106;BME280;61559;50.476;15.588;2023-04-02T13:23:30;97664.08;;;6.98;60.51
73106;BME280;61559;50.476;15.588;2023-04-02T13:26:10;97661.69;;;6.97;60.83
73106;BME280;61559;50.476;15.588;2023-04-02T13:28:55;97664.73;;;6.93;61.12
73106;BME280;61559;50.476;15.588;2023-04-02T13:31:27;97666.91;;;6.94;62.16
73106;BME280;61559;50.476;15.588;2023-04-02T13:33:59;97663.73;;;7.00;62.26
73106;BME280;61559;50.476;15.588;2023-04-02T13:36:31;97673.24;;;7.09;61.28
73106;BME280;61559;50.476;15.588;2023-04-02T13:39:03;97675.17;;;7.07;60.26
73106;BME280;61559;50.476;15.588;2023-04-02T13:41:38;97676.61;;;7.02;60.14
73106;BME280;61559;50.476;15.588;2023-04-02T13:44:18;97672.21;;;7.06;61.57
73106;BME280;61559;50.476;15.588;2023-04-02T13:46:50;97691.89;;;7.19;62.12
73106;BME280;61559;50.476;15.588;2023-04-02T13:49:22;97695.24;;;7.21;60.67
73106;BME280;61559;50.476;15.588;2023-04-02T13:51:55;97697.53;;;7.19;60.67
73106;BME280;61559;50.476;15.588;2023-04-02T13:54:32;97695.64;;;7.18;60.86
73106;BME280;61559;50.476;15.588;2023-04-02T13:57:08;97701.23;;;7.14;60.44
73106;BME280;61559;50.476;15.588;2023-04-02T13:59:40;97709.58;;;7.14;60.54
73106;BME280;61559;50.476;15.588;2023-04-02T14:02:15;97707.06;;;7.18;61.18
73106;BME280;61559;50.476;15.588;2023-04-02T14:04:50;97715.98;;;7.14;60.69